Time;durP1;ratioP1;P1;durP2;ratioP2;P2;SDS_P1;SDS_P2;PMS_P1;PMS_P2;Temp;Humidity;BMP_temperature;BMP_pressure;BME280_temperature;BME280_humidity;BME280_pressure;Samples;Min_cycle;Max_cycle;Signal;HPM_P1;HPM_P2
2023/03/02 00:00:14;;;;;;;;;;;3.60;61.80;;;;;;5160962;27;19907;-64
2023/03/02 00:02:39;;;;;;;;;;;3.60;60.60;;;;;;5160772;27;19914;-64
2023/03/02 00:05:06;;;;;;;;;;;3.50;60.00;;;;;;5160913;27;19908;-63
2023/03/02 00:07:32;;;;;;;;;;;3.40;59.30;;;;;;5160913;27;19911;-63
2023/03/02 00:09:58;;;;;;;;;;;3.40;60.20;;;;;;5161285;27;20002;-63
2023/03/02 00:12:26;;;;;;;;;;;3.40;60.50;;;;;;5159454;27;19957;-63
2023/03/02 00:14:51;;;;;;;;;;;3.40;60.40;;;;;;5160469;27;19914;-63
2023/03/02 00:17:17;;;;;;;;;;;3.40;60.40;;;;;;5141844;27;19911;-64
2023/03/02 00:19:43;;;;;;;;;;;3.30;61.30;;;;;;5160505;27;19949;-64
2023/03/02 00:22:09;;;;;;;;;;;3.30;62.00;;;;;;5160793;27;19907;-63
2023/03/02 00:24:34;;;;;;;;;;;3.30;61.00;;;;;;5160693;27;19946;-64
2023/03/02 00:27:00;;;;;;;;;;;3.30;61.20;;;;;;5160464;27;20030;-63
2023/03/02 00:29:26;;;;;;;;;;;3.20;61.30;;;;;;5160164;27;19963;-64
2023/03/02 00:31:51;;;;;;;;;;;3.20;61.50;;;;;;5160649;27;19918;-63
2023/03/02 00:34:17;;;;;;;;;;;3.10;62.70;;;;;;5160479;27;19998;-64
2023/03/02 00:36:42;;;;;;;;;;;3.10;61.40;;;;;;5160335;27;19907;-64
2023/03/02 00:39:08;;;;;;;;;;;3.10;62.80;;;;;;5160562;27;20356;-64
2023/03/02 00:41:34;;;;;;;;;;;3.10;64.00;;;;;;5160220;27;19908;-63
2023/03/02 00:43:59;;;;;;;;;;;3.10;62.80;;;;;;5160526;27;19946;-63
2023/03/02 00:46:27;;;;;;;;;;;3.10;62.50;;;;;;5160119;27;19970;-63
2023/03/02 00:48:53;;;;;;;;;;;3.00;66.30;;;;;;5159908;27;19907;-63
2023/03/02 00:51:18;;;;;;;;;;;3.00;65.00;;;;;;5160341;27;19951;-64
2023/03/02 00:53:44;;;;;;;;;;;3.00;63.10;;;;;;5160114;27;19927;-64
2023/03/02 00:56:09;;;;;;;;;;;3.00;64.30;;;;;;5159911;27;19914;-63
2023/03/02 00:58:35;;;;;;;;;;;2.90;62.80;;;;;;5160298;27;19913;-63
2023/03/02 01:01:09;;;;;;;;;;;2.90;63.80;;;;;;5160066;27;20289;-63
2023/03/02 01:03:35;;;;;;;;;;;2.90;66.10;;;;;;5159875;27;19911;-63
2023/03/02 01:06:01;;;;;;;;;;;2.90;66.10;;;;;;5160021;27;19907;-63
2023/03/02 01:08:26;;;;;;;;;;;2.90;64.00;;;;;;5159691;27;19937;-63
2023/03/02 01:10:52;;;;;;;;;;;2.90;64.10;;;;;;5160178;27;19946;-64
2023/03/02 01:13:18;;;;;;;;;;;2.90;64.70;;;;;;5160179;27;20269;-63
2023/03/02 01:15:44;;;;;;;;;;;2.90;66.50;;;;;;5159853;27;20294;-63
2023/03/02 01:18:10;;;;;;;;;;;2.80;74.30;;;;;;5160072;27;19911;-64
2023/03/02 01:20:35;;;;;;;;;;;2.80;66.00;;;;;;5159831;27;20433;-64
2023/03/02 01:23:01;;;;;;;;;;;2.80;76.50;;;;;;5159827;27;19929;-64
2023/03/02 01:25:27;;;;;;;;;;;2.80;69.60;;;;;;5159805;27;19982;-63
2023/03/02 01:27:52;;;;;;;;;;;2.80;68.10;;;;;;5159362;27;19919;-64
2023/03/02 01:30:18;;;;;;;;;;;2.80;71.10;;;;;;5160090;27;20285;-64
2023/03/02 01:32:44;;;;;;;;;;;2.70;66.00;;;;;;5160070;27;19914;-63
2023/03/02 01:35:10;;;;;;;;;;;2.70;67.50;;;;;;5159847;27;19907;-63
2023/03/02 01:37:35;;;;;;;;;;;2.60;64.70;;;;;;5159642;27;20006;-64
2023/03/02 01:40:04;;;;;;;;;;;2.60;65.00;;;;;;5159915;27;20376;-64
2023/03/02 01:42:36;;;;;;;;;;;2.60;67.80;;;;;;5159470;27;20373;-64
2023/03/02 01:45:01;;;;;;;;;;;2.50;64.70;;;;;;5159612;27;19908;-63
2023/03/02 01:47:32;;;;;;;;;;;2.50;64.80;;;;;;5159900;27;20277;-63
2023/03/02 01:50:00;;;;;;;;;;;2.50;65.00;;;;;;5159535;27;19918;-63
2023/03/02 01:52:28;;;;;;;;;;;2.50;64.00;;;;;;5159522;27;19989;-64
2023/03/02 01:54:55;;;;;;;;;;;2.40;65.00;;;;;;5159728;27;19908;-64
2023/03/02 01:57:22;;;;;;;;;;;2.40;64.60;;;;;;5140822;27;19989;-63
2023/03/02 01:59:52;;;;;;;;;;;2.30;66.20;;;;;;5159473;27;19921;-63
2023/03/02 02:02:18;;;;;;;;;;;2.30;68.70;;;;;;5159304;27;20353;-64
2023/03/02 02:04:46;;;;;;;;;;;2.20;66.50;;;;;;5159571;27;19930;-63
2023/03/02 02:07:11;;;;;;;;;;;2.30;69.50;;;;;;5159249;27;20444;-63
2023/03/02 02:09:42;;;;;;;;;;;2.20;73.10;;;;;;5159290;27;20074;-64
2023/03/02 02:12:12;;;;;;;;;;;2.30;67.70;;;;;;5159422;27;19915;-64
2023/03/02 02:14:38;;;;;;;;;;;2.20;65.80;;;;;;5159452;27;20032;-64
2023/03/02 02:17:04;;;;;;;;;;;2.20;65.80;;;;;;5159444;27;19949;-63
2023/03/02 02:19:46;;;;;;;;;;;2.10;66.90;;;;;;5159277;27;19907;-63
2023/03/02 02:22:14;;;;;;;;;;;2.10;70.10;;;;;;5159474;27;19907;-63
2023/03/02 02:24:42;;;;;;;;;;;2.00;68.00;;;;;;5159185;27;19911;-64
2023/03/02 02:27:08;;;;;;;;;;;2.00;72.80;;;;;;5158982;27;19911;-64
2023/03/02 02:29:36;;;;;;;;;;;2.00;70.30;;;;;;5158761;27;19926;-63
2023/03/02 02:32:19;;;;;;;;;;;2.00;76.20;;;;;;5159097;27;19979;-63
2023/03/02 02:34:49;;;;;;;;;;;2.00;70.60;;;;;;5160376;27;19907;-63
2023/03/02 02:37:18;;;;;;;;;;;2.00;68.50;;;;;;5163274;27;20285;-64
2023/03/02 02:39:45;;;;;;;;;;;2.00;67.40;;;;;;5162626;27;19907;-63
2023/03/02 02:42:12;;;;;;;;;;;2.00;68.80;;;;;;5162718;27;19907;-63
2023/03/02 02:44:38;;;;;;;;;;;1.90;66.80;;;;;;5162912;27;19907;-63
2023/03/02 02:47:11;;;;;;;;;;;1.90;68.30;;;;;;5162960;27;19959;-63
2023/03/02 02:49:38;;;;;;;;;;;1.80;67.80;;;;;;5162895;27;19911;-64
2023/03/02 02:52:04;;;;;;;;;;;1.80;68.60;;;;;;5162590;27;19907;-63
2023/03/02 02:54:31;;;;;;;;;;;1.80;68.80;;;;;;5162708;27;19907;-63
2023/03/02 02:56:57;;;;;;;;;;;1.80;73.60;;;;;;5162655;27;19918;-64
2023/03/02 02:59:27;;;;;;;;;;;1.80;81.40;;;;;;5162268;27;19907;-63
2023/03/02 03:01:53;;;;;;;;;;;1.80;71.00;;;;;;5162587;27;19952;-63
2023/03/02 03:04:20;;;;;;;;;;;1.80;71.30;;;;;;5162653;27;19907;-64
2023/03/02 03:06:51;;;;;;;;;;;1.70;73.20;;;;;;5162251;27;20285;-64
2023/03/02 03:09:16;;;;;;;;;;;1.70;80.90;;;;;;5162453;27;19994;-63
2023/03/02 03:11:43;;;;;;;;;;;1.60;71.10;;;;;;5162383;27;19942;-63
2023/03/02 03:14:09;;;;;;;;;;;1.60;73.90;;;;;;5162629;27;19908;-63
2023/03/02 03:16:35;;;;;;;;;;;1.60;77.00;;;;;;5162259;27;19964;-64
2023/03/02 03:19:14;;;;;;;;;;;1.60;73.30;;;;;;5162546;27;19915;-64
2023/03/02 03:21:40;;;;;;;;;;;1.60;76.20;;;;;;5162038;27;19907;-64
2023/03/02 03:24:06;;;;;;;;;;;1.50;69.70;;;;;;5161970;27;20316;-64
2023/03/02 03:26:31;;;;;;;;;;;1.50;74.30;;;;;;5161999;27;20360;-64
2023/03/02 03:28:57;;;;;;;;;;;1.40;75.50;;;;;;5161784;27;19929;-64
2023/03/02 03:31:24;;;;;;;;;;;1.40;80.30;;;;;;5161825;27;19911;-64
2023/03/02 03:33:49;;;;;;;;;;;1.30;73.60;;;;;;5161972;27;20369;-63
2023/03/02 03:36:16;;;;;;;;;;;1.30;76.70;;;;;;5161732;27;20016;-63
2023/03/02 03:38:42;;;;;;;;;;;1.40;77.80;;;;;;5161519;27;20338;-63
2023/03/02 03:41:08;;;;;;;;;;;1.30;75.60;;;;;;5161827;27;19907;-63
2023/03/02 03:43:33;;;;;;;;;;;1.30;80.90;;;;;;5161638;27;19921;-63
2023/03/02 03:45:59;;;;;;;;;;;1.30;83.70;;;;;;5161657;27;19907;-64
2023/03/02 03:48:25;;;;;;;;;;;1.20;82.10;;;;;;5161829;27;19911;-63
2023/03/02 03:50:50;;;;;;;;;;;1.30;81.00;;;;;;5161361;27;19907;-63
2023/03/02 03:53:16;;;;;;;;;;;1.20;83.90;;;;;;5142587;27;19956;-64
2023/03/02 03:55:41;;;;;;;;;;;1.30;88.30;;;;;;5161289;27;19914;-63
2023/03/02 03:58:07;;;;;;;;;;;1.30;81.00;;;;;;5161502;27;19954;-63
2023/03/02 04:00:33;;;;;;;;;;;1.30;84.90;;;;;;5161240;27;20318;-63
2023/03/02 04:02:58;;;;;;;;;;;1.30;83.70;;;;;;5161317;27;19947;-63
2023/03/02 04:05:24;;;;;;;;;;;1.30;83.80;;;;;;5161338;27;19960;-63
2023/03/02 04:07:49;;;;;;;;;;;1.30;81.40;;;;;;5160969;27;20005;-64
2023/03/02 04:10:15;;;;;;;;;;;1.30;81.60;;;;;;5161345;27;19915;-63
2023/03/02 04:12:41;;;;;;;;;;;1.40;78.30;;;;;;5160626;27;19955;-63
2023/03/02 04:15:08;;;;;;;;;;;1.40;88.40;;;;;;5161073;27;19934;-64
2023/03/02 04:17:33;;;;;;;;;;;1.30;86.30;;;;;;5160769;27;19907;-63
2023/03/02 04:19:59;;;;;;;;;;;1.40;91.50;;;;;;5161053;27;19955;-64
2023/03/02 04:22:25;;;;;;;;;;;1.40;92.00;;;;;;5160729;27;19911;-63
2023/03/02 04:24:50;;;;;;;;;;;1.30;81.80;;;;;;5160956;27;19914;-63
2023/03/02 04:27:16;;;;;;;;;;;1.30;78.40;;;;;;5160765;27;19911;-64
2023/03/02 04:29:43;;;;;;;;;;;1.30;80.50;;;;;;5161123;27;19911;-63
2023/03/02 04:32:09;;;;;;;;;;;1.20;80.10;;;;;;5160510;27;19967;-63
2023/03/02 04:34:35;;;;;;;;;;;1.30;80.50;;;;;;5161057;27;19907;-63
2023/03/02 04:37:01;;;;;;;;;;;1.30;79.10;;;;;;5141882;27;19994;-64
2023/03/02 04:39:27;;;;;;;;;;;1.20;80.40;;;;;;5160480;27;19991;-63
2023/03/02 04:41:52;;;;;;;;;;;1.20;78.20;;;;;;5160612;27;19915;-64
2023/03/02 04:44:18;;;;;;;;;;;1.30;78.10;;;;;;5160425;27;19907;-64
2023/03/02 04:46:45;;;;;;;;;;;1.20;78.60;;;;;;5160329;27;20018;-63
2023/03/02 04:49:11;;;;;;;;;;;1.20;77.30;;;;;;5160486;27;19907;-63
2023/03/02 04:51:38;;;;;;;;;;;1.20;84.40;;;;;;5160170;27;20397;-63
2023/03/02 04:54:06;;;;;;;;;;;1.20;83.10;;;;;;5141468;27;19914;-64
2023/03/02 04:56:32;;;;;;;;;;;1.20;80.20;;;;;;5160534;27;19907;-64
2023/03/02 04:58:58;;;;;;;;;;;1.20;78.90;;;;;;5160225;27;19915;-64
2023/03/02 05:01:23;;;;;;;;;;;1.20;79.30;;;;;;5160132;27;19907;-63
2023/03/02 05:03:49;;;;;;;;;;;1.10;78.10;;;;;;5160110;27;19943;-63
2023/03/02 05:06:15;;;;;;;;;;;1.10;84.10;;;;;;5160025;27;20383;-64
2023/03/02 05:08:41;;;;;;;;;;;1.10;78.10;;;;;;5160259;27;19989;-63
2023/03/02 05:11:07;;;;;;;;;;;1.10;77.60;;;;;;5159934;27;19911;-64
2023/03/02 05:13:33;;;;;;;;;;;1.00;76.00;;;;;;5160138;27;19914;-64
2023/03/02 05:15:58;;;;;;;;;;;1.00;81.20;;;;;;5160070;27;19908;-64
2023/03/02 05:18:24;;;;;;;;;;;1.10;84.70;;;;;;5159977;27;19911;-64
2023/03/02 05:20:50;;;;;;;;;;;1.00;78.50;;;;;;5160262;27;19907;-64
2023/03/02 05:23:22;;;;;;;;;;;1.00;78.40;;;;;;5159998;27;19914;-63
2023/03/02 05:25:51;;;;;;;;;;;1.00;80.60;;;;;;5159532;27;19998;-63
2023/03/02 05:28:18;;;;;;;;;;;1.00;81.50;;;;;;5159528;27;20346;-63
2023/03/02 05:30:43;;;;;;;;;;;1.00;90.70;;;;;;5159988;27;19914;-63
2023/03/02 05:33:09;;;;;;;;;;;1.00;89.60;;;;;;5159834;27;20361;-63
2023/03/02 05:35:35;;;;;;;;;;;1.00;84.60;;;;;;5159884;27;19998;-63
2023/03/02 05:38:00;;;;;;;;;;;0.90;82.50;;;;;;5159885;27;19915;-63
2023/03/02 05:40:26;;;;;;;;;;;0.90;82.40;;;;;;5159580;27;19908;-64
2023/03/02 05:42:51;;;;;;;;;;;0.90;81.00;;;;;;5159943;27;19907;-64
2023/03/02 05:45:22;;;;;;;;;;;0.90;82.80;;;;;;5159734;27;19915;-63
2023/03/02 05:47:48;;;;;;;;;;;0.80;77.90;;;;;;5159309;27;19923;-63
2023/03/02 05:50:14;;;;;;;;;;;0.80;78.10;;;;;;5159795;27;20346;-64
2023/03/02 05:52:40;;;;;;;;;;;0.80;77.70;;;;;;5159505;27;19990;-64
2023/03/02 05:55:06;;;;;;;;;;;0.80;81.00;;;;;;5159789;27;19914;-63
2023/03/02 05:57:31;;;;;;;;;;;0.70;77.50;;;;;;5159334;27;20381;-63
2023/03/02 05:59:57;;;;;;;;;;;0.70;78.40;;;;;;5159446;27;19911;-64
2023/03/02 06:02:22;;;;;;;;;;;0.70;77.40;;;;;;5159599;27;20024;-64
2023/03/02 06:04:48;;;;;;;;;;;0.70;79.20;;;;;;5159593;27;19907;-63
2023/03/02 06:07:14;;;;;;;;;;;0.80;79.90;;;;;;5159576;27;19907;-64
2023/03/02 06:09:40;;;;;;;;;;;0.80;79.30;;;;;;5160541;27;19940;-64
2023/03/02 06:12:06;;;;;;;;;;;0.80;82.20;;;;;;5163687;27;19907;-64
2023/03/02 06:14:32;;;;;;;;;;;0.80;88.60;;;;;;5163711;27;19922;-64
2023/03/02 06:16:58;;;;;;;;;;;0.80;85.50;;;;;;5163643;27;19915;-63
2023/03/02 06:19:23;;;;;;;;;;;0.80;85.60;;;;;;5163198;27;20285;-64
2023/03/02 06:21:49;;;;;;;;;;;0.80;92.50;;;;;;5163161;27;20369;-63
2023/03/02 06:24:14;;;;;;;;;;;0.70;83.40;;;;;;5163139;27;19907;-63
2023/03/02 06:26:40;;;;;;;;;;;0.70;81.60;;;;;;5163305;27;19907;-64
2023/03/02 06:29:06;;;;;;;;;;;0.70;81.60;;;;;;5162949;27;19933;-63
2023/03/02 06:31:32;;;;;;;;;;;0.60;80.80;;;;;;5163219;27;19991;-63
2023/03/02 06:33:58;;;;;;;;;;;0.60;90.50;;;;;;5163114;27;19907;-63
2023/03/02 06:36:23;;;;;;;;;;;0.60;90.30;;;;;;5162895;27;20372;-63
2023/03/02 06:38:49;;;;;;;;;;;0.60;91.20;;;;;;5162930;27;19947;-63
2023/03/02 06:41:15;;;;;;;;;;;0.60;83.60;;;;;;5162749;27;19907;-63
2023/03/02 06:43:40;;;;;;;;;;;0.60;82.20;;;;;;5163076;27;19930;-63
2023/03/02 06:46:06;;;;;;;;;;;0.60;92.20;;;;;;5162919;27;19907;-64
2023/03/02 06:48:32;;;;;;;;;;;0.60;84.80;;;;;;5162227;27;19907;-64
2023/03/02 06:50:57;;;;;;;;;;;0.60;86.20;;;;;;5162967;27;19911;-63
2023/03/02 06:53:23;;;;;;;;;;;0.60;86.50;;;;;;5162614;27;19907;-63
2023/03/02 06:55:49;;;;;;;;;;;0.60;90.70;;;;;;5162611;27;20388;-63
2023/03/02 06:58:15;;;;;;;;;;;0.60;84.70;;;;;;5162433;27;19911;-63
2023/03/02 07:00:40;;;;;;;;;;;0.60;85.70;;;;;;5162812;27;19956;-63
2023/03/02 07:03:06;;;;;;;;;;;0.60;86.40;;;;;;5162264;27;19907;-63
2023/03/02 07:05:32;;;;;;;;;;;0.70;92.60;;;;;;5162739;27;19914;-63
2023/03/02 07:07:58;;;;;;;;;;;0.70;90.30;;;;;;5162051;27;20034;-63
2023/03/02 07:10:24;;;;;;;;;;;0.60;88.10;;;;;;5161925;27;20332;-63
2023/03/02 07:12:49;;;;;;;;;;;0.70;94.10;;;;;;5162269;27;19930;-63
2023/03/02 07:15:15;;;;;;;;;;;0.70;88.40;;;;;;5162175;27;19934;-63
2023/03/02 07:17:42;;;;;;;;;;;0.70;90.20;;;;;;5162416;27;19911;-64
2023/03/02 07:20:09;;;;;;;;;;;0.70;94.10;;;;;;5161664;27;19942;-64
2023/03/02 07:22:34;;;;;;;;;;;0.80;94.60;;;;;;5161692;27;19911;-63
2023/03/02 07:25:00;;;;;;;;;;;0.70;91.50;;;;;;5162211;27;19914;-63
2023/03/02 07:27:26;;;;;;;;;;;0.70;91.90;;;;;;5161778;27;19911;-63
2023/03/02 07:29:51;;;;;;;;;;;0.80;89.60;;;;;;5161973;27;19915;-63
2023/03/02 07:32:17;;;;;;;;;;;0.80;91.50;;;;;;5162178;27;19911;-64
2023/03/02 07:34:43;;;;;;;;;;;0.80;91.40;;;;;;5161661;27;20326;-63
2023/03/02 07:37:08;;;;;;;;;;;0.90;95.40;;;;;;5162011;27;20015;-63
2023/03/02 07:39:34;;;;;;;;;;;0.90;91.50;;;;;;5161452;27;19907;-63
2023/03/02 07:42:00;;;;;;;;;;;0.90;91.20;;;;;;5161859;27;20265;-63
2023/03/02 07:44:26;;;;;;;;;;;0.90;92.40;;;;;;5161501;27;19922;-64
2023/03/02 07:46:51;;;;;;;;;;;1.00;91.00;;;;;;5161977;27;19907;-63
2023/03/02 07:49:17;;;;;;;;;;;1.10;93.00;;;;;;5161587;27;19915;-63
2023/03/02 07:51:43;;;;;;;;;;;1.10;91.80;;;;;;5142760;27;19911;-63
2023/03/02 07:54:08;;;;;;;;;;;1.20;92.10;;;;;;5161495;27;19908;-64
2023/03/02 07:56:34;;;;;;;;;;;1.20;90.40;;;;;;5142633;27;19979;-64
2023/03/02 07:59:00;;;;;;;;;;;1.30;93.30;;;;;;5161276;27;20288;-64
2023/03/02 08:01:25;;;;;;;;;;;1.30;95.40;;;;;;5161371;27;19907;-64
2023/03/02 08:03:51;;;;;;;;;;;1.40;95.40;;;;;;5161096;27;19908;-63
2023/03/02 08:06:17;;;;;;;;;;;1.50;94.00;;;;;;5161378;27;19911;-64
2023/03/02 08:08:42;;;;;;;;;;;1.50;96.80;;;;;;5161118;27;19913;-64
2023/03/02 08:11:09;;;;;;;;;;;1.50;94.80;;;;;;5160905;27;19915;-64
2023/03/02 08:13:35;;;;;;;;;;;1.60;94.60;;;;;;5161230;27;19956;-64
2023/03/02 08:16:02;;;;;;;;;;;1.70;96.40;;;;;;5161363;27;19911;-63
2023/03/02 08:18:28;;;;;;;;;;;1.80;94.50;;;;;;5142136;27;19912;-63
2023/03/02 08:20:54;;;;;;;;;;;1.90;95.70;;;;;;5160994;27;19914;-63
2023/03/02 08:23:19;;;;;;;;;;;1.60;95.10;;;;;;5160719;27;19907;-63
2023/03/02 08:25:45;;;;;;;;;;;2.10;95.20;;;;;;5160968;27;20055;-64
2023/03/02 08:28:12;;;;;;;;;;;2.20;93.90;;;;;;5160323;27;20397;-63
2023/03/02 08:30:38;;;;;;;;;;;2.40;94.40;;;;;;5141956;27;19930;-64
2023/03/02 08:33:03;;;;;;;;;;;2.50;93.60;;;;;;5159296;27;19907;-64
2023/03/02 08:35:29;;;;;;;;;;;2.60;93.50;;;;;;5160835;27;19907;-64
2023/03/02 08:37:55;;;;;;;;;;;2.70;93.10;;;;;;5160450;27;19934;-64
2023/03/02 08:40:20;;;;;;;;;;;3.00;95.50;;;;;;5160738;27;20408;-63
2023/03/02 08:42:47;;;;;;;;;;;2.80;97.70;;;;;;5160256;27;19923;-64
2023/03/02 08:45:12;;;;;;;;;;;3.40;96.20;;;;;;5160268;27;19907;-64
2023/03/02 08:47:38;;;;;;;;;;;3.60;96.60;;;;;;5160541;27;19951;-64
2023/03/02 08:50:04;;;;;;;;;;;3.80;98.70;;;;;;5160099;27;19955;-64
2023/03/02 08:52:31;;;;;;;;;;;4.10;99.90;;;;;;5160236;27;19969;-64
2023/03/02 08:54:57;;;;;;;;;;;4.50;99.90;;;;;;5159800;27;19946;-63
2023/03/02 08:57:23;;;;;;;;;;;4.90;99.90;;;;;;5160176;27;19911;-63
2023/03/02 08:59:48;;;;;;;;;;;5.20;99.90;;;;;;5160247;27;19942;-64
2023/03/02 09:02:14;;;;;;;;;;;5.70;99.90;;;;;;5160388;27;19907;-64
2023/03/02 09:04:39;;;;;;;;;;;6.10;99.90;;;;;;5159879;27;20288;-64
2023/03/02 09:07:05;;;;;;;;;;;6.60;99.90;;;;;;5160456;27;19947;-63
2023/03/02 09:09:31;;;;;;;;;;;7.00;99.90;;;;;;5160089;27;20006;-62
2023/03/02 09:11:56;;;;;;;;;;;7.50;99.90;;;;;;5160100;27;20322;-62
2023/03/02 09:14:23;;;;;;;;;;;7.70;99.90;;;;;;5159790;27;19928;-62
2023/03/02 09:16:51;;;;;;;;;;;8.10;99.90;;;;;;5159993;27;19914;-62
2023/03/02 09:19:17;;;;;;;;;;;8.40;99.90;;;;;;5159663;27;20267;-62
2023/03/02 09:21:42;;;;;;;;;;;8.40;99.10;;;;;;5159903;27;19914;-62
2023/03/02 09:24:08;;;;;;;;;;;8.70;98.60;;;;;;5159824;27;19952;-62
2023/03/02 09:26:34;;;;;;;;;;;8.80;99.20;;;;;;5159866;27;19911;-62
2023/03/02 09:29:00;;;;;;;;;;;9.00;95.90;;;;;;5159205;27;20457;-62
2023/03/02 09:31:26;;;;;;;;;;;9.10;94.10;;;;;;5159521;27;19947;-62
2023/03/02 09:33:51;;;;;;;;;;;9.50;98.30;;;;;;5159673;27;19907;-61
2023/03/02 09:36:21;;;;;;;;;;;9.80;93.70;;;;;;5159442;27;19954;-62
2023/03/02 09:38:47;;;;;;;;;;;10.50;99.50;;;;;;5159674;27;19911;-62
2023/03/02 09:41:13;;;;;;;;;;;11.00;89.00;;;;;;5159417;27;19994;-62
2023/03/02 09:43:41;;;;;;;;;;;11.10;81.10;;;;;;5160896;27;19938;-62
2023/03/02 09:46:19;;;;;;;;;;;11.50;83.80;;;;;;5163662;27;19907;-62
2023/03/02 09:48:50;;;;;;;;;;;11.90;80.80;;;;;;5163629;27;19907;-62
2023/03/02 09:51:25;;;;;;;;;;;12.80;97.30;;;;;;5163925;27;19907;-62
2023/03/02 09:54:02;;;;;;;;;;;13.90;82.60;;;;;;5163494;27;19907;-62
2023/03/02 09:56:28;;;;;;;;;;;14.50;67.40;;;;;;5163636;27;19907;-63
2023/03/02 09:59:03;;;;;;;;;;;14.00;69.30;;;;;;5163366;27;19911;-62
2023/03/02 10:01:41;;;;;;;;;;;14.80;68.50;;;;;;5163226;27;19907;-63
2023/03/02 10:04:25;;;;;;;;;;;16.10;66.10;;;;;;5163694;27;19908;-63
2023/03/02 10:06:54;;;;;;;;;;;16.50;63.50;;;;;;5163401;27;20528;-63
2023/03/02 10:09:20;;;;;;;;;;;16.80;62.30;;;;;;5163269;27;19907;-63
2023/03/02 10:12:03;;;;;;;;;;;17.30;63.50;;;;;;5163415;27;19914;-63
2023/03/02 10:14:41;;;;;;;;;;;16.90;57.30;;;;;;5163581;27;19907;-63
2023/03/02 10:17:10;;;;;;;;;;;16.90;60.10;;;;;;5163260;27;19962;-63
2023/03/02 10:19:41;;;;;;;;;;;17.10;61.60;;;;;;5163083;27;19993;-63
2023/03/02 10:22:22;;;;;;;;;;;17.10;56.10;;;;;;5163280;27;20392;-63
2023/03/02 10:24:48;;;;;;;;;;;17.50;61.20;;;;;;5163199;27;19907;-63
2023/03/02 10:27:29;;;;;;;;;;;18.30;54.40;;;;;;5163147;27;19952;-63
2023/03/02 10:30:06;;;;;;;;;;;18.70;55.60;;;;;;5163086;27;19908;-63
2023/03/02 10:32:36;;;;;;;;;;;18.80;50.80;;;;;;5163566;27;19959;-63
2023/03/02 10:35:09;;;;;;;;;;;19.00;56.90;;;;;;5144061;27;19907;-63
2023/03/02 10:37:35;;;;;;;;;;;18.90;52.80;;;;;;5162327;27;20373;-63
2023/03/02 10:40:00;;;;;;;;;;;17.90;48.30;;;;;;5163142;27;19930;-63
2023/03/02 10:42:34;;;;;;;;;;;18.50;49.40;;;;;;5162840;27;19952;-63
2023/03/02 10:45:32;;;;;;;;;;;18.50;49.80;;;;;;5162803;27;19997;-63
2023/03/02 10:47:59;;;;;;;;;;;18.20;48.10;;;;;;5105855;27;19915;-63
2023/03/02 10:50:25;;;;;;;;;;;19.20;48.70;;;;;;5162447;27;19994;-63
2023/03/02 10:52:51;;;;;;;;;;;20.30;50.50;;;;;;5162706;27;19912;-63
2023/03/02 10:55:17;;;;;;;;;;;20.50;45.70;;;;;;5161336;27;19932;-63
2023/03/02 10:57:43;;;;;;;;;;;20.20;48.20;;;;;;5162513;27;19911;-63
2023/03/02 11:00:15;;;;;;;;;;;20.60;46.00;;;;;;5162349;27;19915;-63
2023/03/02 11:02:48;;;;;;;;;;;21.30;49.10;;;;;;5162783;27;19907;-63
2023/03/02 11:05:29;;;;;;;;;;;20.20;43.40;;;;;;5162277;27;19907;-63
2023/03/02 11:07:56;;;;;;;;;;;20.00;45.00;;;;;;5162707;27;19914;-63
2023/03/02 11:10:24;;;;;;;;;;;19.90;46.70;;;;;;5162383;27;19907;-63
2023/03/02 11:12:51;;;;;;;;;;;20.60;42.90;;;;;;5162524;27;19907;-63
2023/03/02 11:15:25;;;;;;;;;;;21.10;43.60;;;;;;5162065;27;19907;-63
2023/03/02 11:17:58;;;;;;;;;;;21.90;45.00;;;;;;5162112;27;19925;-63
2023/03/02 11:20:27;;;;;;;;;;;22.20;45.50;;;;;;5161939;27;19914;-63
2023/03/02 11:22:58;;;;;;;;;;;21.50;41.40;;;;;;5143728;27;19907;-63
2023/03/02 11:25:32;;;;;;;;;;;21.90;44.30;;;;;;5161841;27;19916;-63
2023/03/02 11:28:00;;;;;;;;;;;22.60;40.90;;;;;;5161749;27;19923;-63
2023/03/02 11:30:28;;;;;;;;;;;21.80;42.00;;;;;;5162025;27;19929;-63
2023/03/02 11:33:01;;;;;;;;;;;21.70;39.80;;;;;;5161870;27;19952;-63
2023/03/02 11:35:32;;;;;;;;;;;22.00;40.20;;;;;;5161680;27;19993;-63
2023/03/02 11:38:04;;;;;;;;;;;23.10;43.60;;;;;;5161866;27;19915;-63
2023/03/02 11:40:32;;;;;;;;;;;23.30;38.30;;;;;;5161575;27;19907;-63
2023/03/02 11:42:59;;;;;;;;;;;22.70;37.50;;;;;;5161545;27;19961;-63
2023/03/02 11:45:31;;;;;;;;;;;20.10;38.70;;;;;;5161421;27;19907;-63
2023/03/02 11:48:00;;;;;;;;;;;19.80;39.00;;;;;;5161561;27;19914;-63
2023/03/02 11:50:25;;;;;;;;;;;19.90;39.30;;;;;;5161181;27;19914;-63
2023/03/02 11:52:53;;;;;;;;;;;20.50;38.60;;;;;;5161363;27;20284;-64
2023/03/02 11:55:19;;;;;;;;;;;21.40;40.50;;;;;;5161474;27;19957;-63
2023/03/02 11:57:49;;;;;;;;;;;22.20;37.80;;;;;;5161025;27;19911;-63
2023/03/02 12:00:33;;;;;;;;;;;21.90;38.60;;;;;;5161258;27;19907;-64
2023/03/02 12:03:05;;;;;;;;;;;21.30;38.60;;;;;;5142419;27;20010;-64
2023/03/02 12:05:34;;;;;;;;;;;21.90;40.10;;;;;;5142379;27;19955;-63
2023/03/02 12:08:20;;;;;;;;;;;22.40;36.70;;;;;;5159741;27;19911;-63
2023/03/02 12:11:06;;;;;;;;;;;22.80;40.60;;;;;;5142671;27;19912;-63
2023/03/02 12:13:34;;;;;;;;;;;22.40;37.50;;;;;;5160608;27;19914;-63
2023/03/02 12:16:00;;;;;;;;;;;23.20;38.40;;;;;;5160831;27;19939;-63
2023/03/02 12:18:46;;;;;;;;;;;23.30;39.90;;;;;;5160933;27;19979;-63
2023/03/02 12:21:11;;;;;;;;;;;23.20;36.20;;;;;;5160929;27;19907;-63
2023/03/02 12:23:57;;;;;;;;;;;23.40;39.00;;;;;;5161075;27;19915;-63
2023/03/02 12:26:36;;;;;;;;;;;23.40;34.90;;;;;;5160811;27;19914;-63
2023/03/02 12:29:08;;;;;;;;;;;23.30;38.90;;;;;;5160376;27;19919;-64
2023/03/02 12:31:42;;;;;;;;;;;22.60;36.00;;;;;;5160657;27;19990;-64
2023/03/02 12:34:28;;;;;;;;;;;22.70;37.10;;;;;;5160621;27;19918;-64
2023/03/02 12:36:57;;;;;;;;;;;23.20;37.10;;;;;;5159619;27;19915;-64
2023/03/02 12:39:35;;;;;;;;;;;23.50;37.60;;;;;;5160968;27;19996;-64
2023/03/02 12:42:18;;;;;;;;;;;23.20;35.50;;;;;;5160368;27;19907;-64
2023/03/02 12:44:45;;;;;;;;;;;21.80;33.80;;;;;;5160421;27;20014;-64
2023/03/02 12:47:17;;;;;;;;;;;20.90;34.40;;;;;;5160424;27;19922;-63
2023/03/02 12:49:51;;;;;;;;;;;19.70;34.40;;;;;;5141666;27;19996;-63
2023/03/02 12:52:30;;;;;;;;;;;19.20;35.40;;;;;;5160329;27;19907;-63
2023/03/02 12:55:00;;;;;;;;;;;18.80;35.70;;;;;;5160159;27;19911;-63
2023/03/02 12:57:25;;;;;;;;;;;18.70;36.60;;;;;;5160296;27;19907;-64
2023/03/02 12:59:52;;;;;;;;;;;18.80;38.30;;;;;;5159951;27;19913;-64
2023/03/02 13:02:18;;;;;;;;;;;19.50;38.40;;;;;;5159996;27;19998;-64
2023/03/02 13:04:50;;;;;;;;;;;20.90;38.20;;;;;;5154179;27;19908;-64
2023/03/02 13:07:16;;;;;;;;;;;21.80;39.70;;;;;;5139606;27;20338;-64
2023/03/02 13:09:42;;;;;;;;;;;22.60;37.50;;;;;;5160011;27;19915;-64
2023/03/02 13:12:12;;;;;;;;;;;22.60;35.10;;;;;;5159845;27;20321;-64
2023/03/02 13:14:39;;;;;;;;;;;21.70;33.80;;;;;;5159305;27;19907;-64
2023/03/02 13:17:04;;;;;;;;;;;20.50;33.30;;;;;;5159969;27;19915;-64
2023/03/02 13:19:31;;;;;;;;;;;20.30;35.10;;;;;;5159579;27;19908;-64
2023/03/02 13:21:57;;;;;;;;;;;20.20;36.10;;;;;;5159640;27;19939;-64
2023/03/02 13:24:26;;;;;;;;;;;19.90;35.30;;;;;;5159730;27;19911;-64
2023/03/02 13:27:02;;;;;;;;;;;19.80;37.30;;;;;;5152333;27;19907;-64
2023/03/02 13:29:30;;;;;;;;;;;20.00;36.60;;;;;;5138517;27;20022;-64
2023/03/02 13:32:16;;;;;;;;;;;20.40;36.30;;;;;;5138315;27;20455;-64
2023/03/02 13:34:49;;;;;;;;;;;20.30;36.90;;;;;;5138842;28;19907;-64
2023/03/02 13:37:18;;;;;;;;;;;19.90;35.50;;;;;;5138861;28;19907;-63
2023/03/02 13:39:52;;;;;;;;;;;19.70;35.50;;;;;;5136940;28;19920;-63
2023/03/02 13:42:25;;;;;;;;;;;19.10;35.70;;;;;;5127062;28;19908;-63
2023/03/02 13:44:51;;;;;;;;;;;18.00;36.10;;;;;;5099832;28;19908;-63
2023/03/02 13:47:21;;;;;;;;;;;18.40;37.00;;;;;;5117989;28;19958;-64
2023/03/02 13:49:46;;;;;;;;;;;18.60;37.20;;;;;;5117720;28;19915;-64
2023/03/02 13:52:26;;;;;;;;;;;18.50;37.10;;;;;;5118577;28;20260;-63
2023/03/02 13:54:52;;;;;;;;;;;18.50;36.50;;;;;;5117864;28;19949;-63
2023/03/02 13:57:22;;;;;;;;;;;18.30;36.40;;;;;;5099457;28;19911;-63
2023/03/02 13:59:48;;;;;;;;;;;17.80;37.80;;;;;;5118179;28;19908;-63
2023/03/02 14:02:21;;;;;;;;;;;18.70;38.30;;;;;;5117928;28;19914;-63
2023/03/02 14:04:46;;;;;;;;;;;19.40;38.30;;;;;;5118059;28;19908;-63
2023/03/02 14:07:12;;;;;;;;;;;19.90;37.10;;;;;;5118169;28;19908;-63
2023/03/02 14:09:37;;;;;;;;;;;19.30;35.50;;;;;;5117933;28;19912;-63
2023/03/02 14:12:04;;;;;;;;;;;18.30;36.30;;;;;;5118126;28;19950;-63
2023/03/02 14:14:32;;;;;;;;;;;17.90;36.90;;;;;;5117852;28;19943;-63
2023/03/02 14:16:58;;;;;;;;;;;17.30;37.40;;;;;;5099496;28;19912;-63
2023/03/02 14:19:23;;;;;;;;;;;16.60;38.00;;;;;;5118130;28;21068;-63
2023/03/02 14:21:49;;;;;;;;;;;16.00;38.50;;;;;;5117859;28;19911;-63
2023/03/02 14:24:15;;;;;;;;;;;15.70;39.00;;;;;;5117652;28;19947;-62
2023/03/02 14:26:46;;;;;;;;;;;15.40;38.80;;;;;;5117936;28;19908;-62
2023/03/02 14:29:25;;;;;;;;;;;15.20;37.30;;;;;;5117232;28;20282;-62